createdAt,value
2019-05-06T00:02:54.416Z,12.2
2019-05-06T00:07:49.835Z,11.9
2019-05-06T00:12:46.589Z,11.8
2019-05-06T00:17:44.528Z,11.8
2019-05-06T00:22:40.316Z,12.2
2019-05-06T00:27:37.007Z,12
2019-05-06T00:32:34.774Z,11.9
2019-05-06T00:37:30.789Z,12.1
2019-05-06T00:42:27.756Z,12.2
2019-05-06T00:47:24.697Z,12.2
2019-05-06T00:52:23.799Z,12
2019-05-06T00:57:19.173Z,11.9
2019-05-06T01:02:15.922Z,11.9
2019-05-06T01:07:13.999Z,12.1
2019-05-06T01:12:09.795Z,12.1
2019-05-06T01:17:06.521Z,12
2019-05-06T01:22:04.639Z,11.7
2019-05-06T01:27:00.346Z,11.9
2019-05-06T01:31:57.070Z,11.7
2019-05-06T01:36:54.595Z,11.7
2019-05-06T01:41:50.919Z,11.9
2019-05-06T01:46:47.714Z,11.5
2019-05-06T01:51:44.787Z,11.6
2019-05-06T01:56:41.592Z,11.9
2019-05-06T02:01:38.413Z,11.6
2019-05-06T02:06:35.156Z,11.5
2019-05-06T02:11:33.683Z,11.6
2019-05-06T02:16:28.748Z,11.9
2019-05-06T02:21:26.422Z,11.8
2019-05-06T02:26:23.876Z,11.4
2019-05-06T02:31:19.104Z,11.3
2019-05-06T02:36:15.823Z,11.8
2019-05-06T02:41:13.393Z,11.8
2019-05-06T02:46:09.267Z,11.9
2019-05-06T02:51:06.151Z,11.8
2019-05-06T02:56:03.977Z,11.4
2019-05-06T03:00:59.341Z,11.6
2019-05-06T03:05:56.249Z,11.6
2019-05-06T03:10:53.513Z,11.6
2019-05-06T03:15:49.916Z,11.6
2019-05-06T03:20:46.769Z,11.6
2019-05-06T03:25:44.095Z,11.9
2019-05-06T03:30:45.175Z,12
2019-05-06T03:35:51.876Z,12
2019-05-06T03:40:36.590Z,12.1
2019-05-06T03:45:33.439Z,12.1
2019-05-06T03:50:28.253Z,12.2
2019-05-06T03:55:25.218Z,11.9
2019-05-06T04:00:23.654Z,11.9
2019-05-06T04:05:18.513Z,12.4
2019-05-06T04:10:15.498Z,12.5
2019-05-06T04:15:14.051Z,12.5
2019-05-06T04:20:08.862Z,12.2
2019-05-06T04:25:05.897Z,12.6
2019-05-06T04:30:04.566Z,12.6
2019-05-06T04:34:59.621Z,12.6
2019-05-06T04:39:56.821Z,12.3
2019-05-06T04:44:53.857Z,12.5
2019-05-06T04:49:53.068Z,12.8
2019-05-06T04:54:47.931Z,12.2
2019-05-06T04:59:44.970Z,12.9
2019-05-06T05:04:43.212Z,12.9
2019-05-06T05:09:42.926Z,13.7
2019-05-06T05:14:37.778Z,14.6
2019-05-06T05:19:35.378Z,15.1
2019-05-06T05:24:33.125Z,14.9
2019-05-06T05:29:32.376Z,14.8
2019-05-06T05:34:37.879Z,14.8
2019-05-06T05:39:24.917Z,15.3
2019-05-06T05:44:22.731Z,15.3
2019-05-06T05:49:21.917Z,15.4
2019-05-06T05:54:17.002Z,15.9
2019-05-06T05:59:14.165Z,17.2
2019-05-06T06:04:12.982Z,17.4
2019-05-06T06:09:09.546Z,18.5
2019-05-06T06:14:07.435Z,19.1
2019-05-06T06:19:05.807Z,21.5
2019-05-06T06:24:05.727Z,24.8
2019-05-06T06:29:05.842Z,31
2019-05-06T06:34:06.420Z,28.3
2019-05-06T06:39:03.807Z,22.7
2019-05-06T06:43:59.733Z,20.3
2019-05-06T06:48:55.577Z,19.7
2019-05-06T06:53:52.930Z,18.3
2019-05-06T06:58:47.044Z,16.7
2019-05-06T07:03:43.205Z,17
2019-05-06T07:08:42.436Z,27.5
2019-05-06T07:13:42.063Z,28.9
2019-05-06T07:18:42.697Z,28.3
2019-05-06T07:23:41.855Z,26.4
2019-05-06T07:28:35.837Z,22.1
2019-05-06T07:33:34.185Z,22.4
2019-05-06T07:38:29.717Z,20.6
2019-05-06T07:43:25.745Z,20.7
2019-05-06T07:48:22.171Z,20.5
2019-05-06T07:53:19.103Z,23.4
2019-05-06T07:58:17.115Z,23.1
2019-05-06T08:03:15.038Z,30.3
2019-05-06T08:08:15.475Z,30
2019-05-06T08:13:15.187Z,30
2019-05-06T08:18:14.953Z,32.5
2019-05-06T08:23:14.369Z,34
2019-05-06T08:28:13.626Z,40.6
2019-05-06T08:33:13.426Z,42.7
2019-05-06T08:38:13.291Z,41.5
2019-05-06T08:43:13.050Z,43.1
2019-05-06T08:48:12.803Z,45
2019-05-06T08:53:08.692Z,35.7
2019-05-06T08:58:04.708Z,25.5
2019-05-06T09:02:58.212Z,27.8
2019-05-06T09:07:53.059Z,24.4
2019-05-06T09:12:47.362Z,21.9
2019-05-06T09:17:42.167Z,24.8
2019-05-06T09:22:38.463Z,26.4
2019-05-06T09:27:36.685Z,33.4
2019-05-06T09:32:36.428Z,34.7
2019-05-06T09:37:35.485Z,36.1
2019-05-06T09:42:34.506Z,37.2
2019-05-06T09:47:33.516Z,37
2019-05-06T09:52:33.251Z,28.8
2019-05-06T09:57:26.609Z,22.1
2019-05-06T10:02:22.821Z,21.1
2019-05-06T10:07:14.790Z,20.4
2019-05-06T10:12:12.546Z,19.3
2019-05-06T10:17:05.776Z,17.8
2019-05-06T10:22:03.413Z,15.7
2019-05-06T10:26:56.092Z,15.3
2019-05-06T10:31:52.342Z,15.6
2019-05-06T10:36:47.275Z,14.6
2019-05-06T10:41:43.290Z,13.9
2019-05-06T10:46:39.398Z,13.4
2019-05-06T11:01:37.862Z,13.9
2019-05-06T11:06:35.159Z,15.3
2019-05-06T11:11:38.343Z,18
2019-05-06T11:16:33.103Z,21.5
2019-05-06T11:21:32.696Z,23.9
2019-05-06T11:26:31.141Z,29.4
2019-05-06T11:31:33.134Z,26.7
2019-05-06T11:36:32.291Z,22.9
2019-05-06T11:41:27.768Z,22.6
2019-05-06T11:46:25.192Z,22.8
2019-05-06T11:51:23.061Z,20.3
2019-05-06T11:56:18.453Z,19.9
2019-05-06T12:01:15.147Z,19.3
2019-05-06T12:06:13.002Z,20.6
2019-05-06T12:11:09.380Z,24
2019-05-06T12:16:08.108Z,24.8
2019-05-06T12:21:11.084Z,23.5
2019-05-06T12:26:03.674Z,24.6
2019-05-06T12:31:01.262Z,23.6
2019-05-06T12:35:58.799Z,22.2
2019-05-06T12:40:55.557Z,22.8
2019-05-06T12:45:53.390Z,24.5
2019-05-06T12:50:52.480Z,25.2
2019-05-06T12:55:49.235Z,23.6
2019-05-06T13:00:46.086Z,23.4
2019-05-06T13:05:43.072Z,23.7
2019-05-06T13:10:42.086Z,24.6
2019-05-06T13:15:37.850Z,22.3
2019-05-06T13:20:34.266Z,21.3
2019-05-06T13:25:32.600Z,20.1
2019-05-06T13:30:26.821Z,18.7
2019-05-06T13:35:23.365Z,18
2019-05-06T13:40:19.528Z,17.8
2019-05-06T13:45:15.827Z,17.9
2019-05-06T13:50:12.322Z,17
2019-05-06T13:55:08.747Z,16.5
2019-05-06T14:00:05.221Z,16.1
2019-05-06T14:05:02.887Z,15.9
2019-05-06T14:09:58.492Z,16.4
2019-05-06T14:14:55.005Z,15.2
2019-05-06T14:19:53.314Z,15.4
2019-05-06T14:24:48.515Z,15.4
2019-05-06T14:29:47.969Z,14.6
2019-05-06T14:34:44.239Z,14.2
2019-05-06T14:39:49.761Z,14.6
2019-05-06T14:44:37.640Z,14.4
2019-05-06T14:49:34.067Z,13.4
2019-05-06T14:54:32.983Z,13.3
2019-05-06T14:59:27.714Z,12.8
2019-05-06T15:04:24.477Z,12.5
2019-05-06T15:09:22.552Z,12.3
2019-05-06T15:14:17.959Z,11.7
2019-05-06T15:19:14.740Z,11.6
2019-05-06T15:24:13.734Z,11.1
2019-05-06T15:29:08.459Z,10.7
2019-05-06T15:34:05.205Z,10.6
2019-05-06T15:39:02.455Z,10.5
2019-05-06T15:43:58.764Z,10.9
2019-05-06T15:48:55.570Z,10.8
2019-05-06T15:53:52.970Z,10.9
2019-05-06T15:58:49.262Z,11
2019-05-06T16:03:46.217Z,10.5
2019-05-06T16:08:42.921Z,10.4
2019-05-06T16:13:39.655Z,10.1
2019-05-06T16:18:36.414Z,10.2
2019-05-06T16:23:33.264Z,10.1
2019-05-06T16:28:30.031Z,10.1
2019-05-06T16:33:26.920Z,9.9
2019-05-06T16:38:23.737Z,9.8
2019-05-06T16:43:22.099Z,9.5
2019-05-06T16:48:17.540Z,9.7
2019-05-06T16:53:14.240Z,9.8
2019-05-06T16:58:11.036Z,9.6
2019-05-06T17:03:08.076Z,9.1
2019-05-06T17:08:04.892Z,9.3
2019-05-06T17:13:02.877Z,8.8
2019-05-06T17:17:58.371Z,8.6
2019-05-06T17:22:55.057Z,8.4
2019-05-06T17:27:52.613Z,8.4
2019-05-06T17:32:48.131Z,7.8
2019-05-06T17:37:44.881Z,7.6
2019-05-06T17:42:42.207Z,7.1
2019-05-06T17:47:38.074Z,6.9
2019-05-06T17:52:34.812Z,7
2019-05-06T17:57:32.777Z,7
2019-05-06T18:02:28.263Z,6.9
2019-05-06T18:07:25.095Z,7.1
2019-05-06T18:12:23.143Z,7.6
2019-05-06T18:17:18.799Z,8
2019-05-06T18:22:15.695Z,7.7
2019-05-06T18:27:13.178Z,7.8
2019-05-06T18:32:09.516Z,7.7
2019-05-06T18:37:06.144Z,7.1
2019-05-06T18:42:15.270Z,6.7
2019-05-06T18:46:59.767Z,6.5
2019-05-06T18:51:55.774Z,6.4
2019-05-06T18:56:52.599Z,6.3
2019-05-06T19:01:49.283Z,6.1
2019-05-06T19:06:46.063Z,6.5
2019-05-06T19:11:42.971Z,6.4
2019-05-06T19:16:49.553Z,6.7
2019-05-06T19:21:36.812Z,7.2
2019-05-06T19:26:33.505Z,7.3
2019-05-06T19:31:32.245Z,7.3
2019-05-06T19:36:27.531Z,7.5
2019-05-06T19:41:24.637Z,7.5
2019-05-06T19:46:21.578Z,7.7
2019-05-06T19:51:18.095Z,8
2019-05-06T19:56:15.335Z,7.8
2019-05-06T20:01:12.054Z,8.1
2019-05-06T20:06:09.112Z,8.2
2019-05-06T20:11:05.964Z,8
2019-05-06T20:16:02.917Z,8.2
2019-05-06T20:20:59.881Z,8.1
2019-05-06T20:25:56.951Z,8.4
2019-05-06T20:30:53.946Z,8.3
2019-05-06T20:35:52.519Z,8.1
2019-05-06T20:40:47.767Z,8.2
2019-05-06T20:45:44.709Z,8.4
2019-05-06T20:50:42.861Z,8.1
2019-05-06T20:55:38.754Z,8.1
2019-05-06T21:00:35.698Z,8.2
2019-05-06T21:05:32.505Z,8.1
2019-05-06T21:10:29.406Z,8.1
2019-05-06T21:15:26.127Z,8.1
2019-05-06T21:20:23.147Z,8.1
2019-05-06T21:25:22.418Z,8.3
2019-05-06T21:30:16.894Z,8
2019-05-06T21:35:13.727Z,8.1
2019-05-06T21:40:12.223Z,8
2019-05-06T21:45:07.132Z,8
2019-05-06T21:50:04.224Z,7.8
2019-05-06T21:55:02.503Z,7.6
2019-05-06T21:59:57.860Z,7.8
2019-05-06T22:04:55.520Z,7.4
2019-05-06T22:09:52.715Z,7.3
2019-05-06T22:14:48.264Z,7.2
2019-05-06T22:19:44.851Z,7
2019-05-06T22:24:42.690Z,6.8
2019-05-06T22:29:38.599Z,6.7
2019-05-06T22:34:35.217Z,6.8
2019-05-06T22:39:34.189Z,6.5
2019-05-06T22:44:28.851Z,6.4
2019-05-06T22:49:25.667Z,6.4
2019-05-06T22:54:24.187Z,6.3
2019-05-06T22:59:19.314Z,6.6
2019-05-06T23:04:16.146Z,6.4
2019-05-06T23:09:13.057Z,6.5
2019-05-06T23:14:12.151Z,6.7
2019-05-06T23:19:06.650Z,6.5
2019-05-06T23:24:03.313Z,6.5
2019-05-06T23:29:02.177Z,6.6
2019-05-06T23:33:56.703Z,6.5
2019-05-06T23:38:53.236Z,6.6
2019-05-06T23:43:49.848Z,6.4
2019-05-06T23:48:46.403Z,6.2
2019-05-06T23:53:43.190Z,6
2019-05-06T23:58:40.184Z,6.3
